Time;durP1;ratioP1;P1;durP2;ratioP2;P2;SDS_P1;SDS_P2;PMS_P1;PMS_P2;Temp;Humidity;BMP_temperature;BMP_pressure;BME280_temperature;BME280_humidity;BME280_pressure;Samples;Min_cycle;Max_cycle;Signal;HPM_P1;HPM_P2
2022/06/04 00:00:21;;;;;;;;;22.00;19.75;;;;;21.19;100.00;101171.94;5076079;28;46214;-76
2022/06/04 00:02:48;;;;;;;;;23.75;21.00;;;;;21.16;100.00;101177.22;5075119;28;45904;-76
2022/06/04 00:05:17;;;;;;;;;20.75;19.75;;;;;21.14;100.00;101176.31;5065550;27;45369;-76
2022/06/04 00:07:42;;;;;;;;;26.25;21.50;;;;;21.14;100.00;101178.06;5082011;28;45281;-76
2022/06/04 00:15:44;;;;;;;;;23.25;20.25;;;;;21.13;100.00;101171.91;5075835;28;45216;-76
2022/06/04 00:18:09;;;;;;;;;26.00;22.75;;;;;21.16;100.00;101179.84;5075969;27;46097;-76
2022/06/04 00:20:36;;;;;;;;;21.50;20.25;;;;;21.12;100.00;101177.16;5076132;28;45367;-77
2022/06/04 00:23:04;;;;;;;;;22.25;21.25;;;;;21.10;100.00;101181.56;5079050;27;45770;-76
2022/06/04 00:25:31;;;;;;;;;21.50;20.75;;;;;21.07;100.00;101171.00;5079496;28;45314;-77
2022/06/04 00:27:58;;;;;;;;;20.50;20.50;;;;;21.08;100.00;101173.63;5079285;27;45520;-77
2022/06/04 00:30:23;;;;;;;;;22.00;20.25;;;;;21.08;100.00;101181.53;5079064;28;45461;-77
2022/06/04 00:32:49;;;;;;;;;18.00;17.50;;;;;21.05;100.00;101181.53;5079551;28;45432;-77
2022/06/04 00:35:15;;;;;;;;;21.75;20.50;;;;;21.00;100.00;101186.72;5079673;28;45365;-77
2022/06/04 00:37:41;;;;;;;;;19.50;19.50;;;;;21.00;100.00;101185.84;5079347;27;45532;-77
2022/06/04 00:40:09;;;;;;;;;23.50;21.75;;;;;21.03;100.00;101184.13;5078887;27;45943;-77
2022/06/04 00:42:35;;;;;;;;;19.25;19.25;;;;;20.96;100.00;101160.38;5078501;27;45318;-76
2022/06/04 00:45:38;;;;;;;;;21.25;21.00;;;;;21.03;100.00;101172.72;5078854;27;45353;-77
2022/06/04 00:48:08;;;;;;;;;18.75;18.75;;;;;21.03;100.00;101162.19;5037519;28;45407;-76
2022/06/04 00:50:36;;;;;;;;;19.25;19.25;;;;;21.00;100.00;101149.88;5084009;28;45573;-77
2022/06/04 00:53:09;;;;;;;;;23.50;23.00;;;;;21.02;100.00;101155.16;5085789;28;45818;-77
2022/06/04 00:56:04;;;;;;;;;23.50;21.50;;;;;21.00;100.00;101136.72;5083431;28;45424;-77
2022/06/04 00:58:42;;;;;;;;;22.75;18.75;;;;;20.97;100.00;101136.72;5079379;27;45572;-76
2022/06/04 01:01:25;;;;;;;;;20.75;19.25;;;;;20.98;100.00;101130.56;5078977;27;45347;-76
2022/06/04 01:04:12;;;;;;;;;21.50;20.00;;;;;20.93;100.00;101128.78;5060226;28;45879;-77
2022/06/04 01:07:02;;;;;;;;;23.00;19.75;;;;;20.98;100.00;101141.09;5060576;28;45510;-77
2022/06/04 01:09:38;;;;;;;;;24.75;22.00;;;;;20.97;100.00;101146.34;5078791;28;45438;-77
2022/06/04 01:12:37;;;;;;;;;21.75;19.75;;;;;20.94;100.00;101138.44;5078311;27;46093;-77
2022/06/04 01:15:50;;;;;;;;;20.75;20.75;;;;;20.92;100.00;101135.78;5059890;28;45341;-77
2022/06/04 01:18:31;;;;;;;;;19.50;19.25;;;;;20.91;100.00;101131.38;5051143;28;45480;-76
2022/06/04 01:20:59;;;;;;;;;21.00;19.25;;;;;20.91;100.00;101134.03;5078595;28;45484;-76
2022/06/04 01:23:25;;;;;;;;;24.00;23.25;;;;;20.83;100.00;101114.66;5078324;28;45626;-76
2022/06/04 01:26:31;;;;;;;;;22.00;21.25;;;;;20.87;100.00;101129.63;5078037;28;45469;-77
2022/06/04 01:29:03;;;;;;;;;24.00;23.00;;;;;20.87;100.00;101133.13;5078319;28;45453;-77
2022/06/04 01:31:39;;;;;;;;;21.25;20.00;;;;;20.87;100.00;101112.06;5078402;27;45400;-77
2022/06/04 01:34:09;;;;;;;;;24.00;21.25;;;;;20.82;100.00;101091.84;5082652;27;46087;-78
2022/06/04 01:36:47;;;;;;;;;20.75;19.50;;;;;20.90;100.00;101108.56;5085681;28;45250;-76
2022/06/04 01:39:20;;;;;;;;;24.25;24.25;;;;;20.83;100.00;101091.88;5078429;28;45461;-76
2022/06/04 01:41:52;;;;;;;;;21.75;20.50;;;;;20.88;100.00;101110.34;5078942;28;45464;-76
2022/06/04 01:44:23;;;;;;;;;21.75;20.75;;;;;20.82;100.00;101098.00;5078127;28;45336;-78
2022/06/04 01:46:57;;;;;;;;;26.25;23.00;;;;;20.80;100.00;101090.94;5078379;28;45379;-76
2022/06/04 01:49:50;;;;;;;;;27.75;25.00;;;;;20.85;100.00;101099.78;5059692;28;45430;-75
2022/06/04 01:52:23;;;;;;;;;27.50;22.75;;;;;20.84;100.00;101093.59;5078733;28;45391;-76
2022/06/04 01:55:03;;;;;;;;;22.50;20.00;;;;;20.82;100.00;101094.47;5077928;27;45662;-76
2022/06/04 01:57:43;;;;;;;;;23.25;22.00;;;;;20.81;100.00;101095.34;5077559;27;45806;-76
2022/06/04 02:00:16;;;;;;;;;22.25;19.00;;;;;20.79;100.00;101100.63;5077650;27;45310;-76
2022/06/04 02:02:50;;;;;;;;;22.00;22.00;;;;;20.77;100.00;101106.75;5077918;27;45497;-76
2022/06/04 02:05:30;;;;;;;;;22.75;22.25;;;;;20.72;100.00;101104.91;5077913;28;46183;-76
2022/06/04 02:07:59;;;;;;;;;22.00;21.00;;;;;20.71;100.00;101103.16;5077256;27;45264;-76
2022/06/04 02:10:36;;;;;;;;;22.50;20.25;;;;;20.72;100.00;101107.53;5077781;28;45418;-76
2022/06/04 02:13:06;;;;;;;;;21.25;21.25;;;;;20.74;100.00;101112.84;5077585;28;45414;-75
2022/06/04 02:15:53;;;;;;;;;21.50;20.50;;;;;20.70;100.00;101111.03;5077389;28;45392;-76
2022/06/04 02:18:19;;;;;;;;;21.75;21.75;;;;;20.73;100.00;101117.19;5082203;27;45956;-76
2022/06/04 02:20:46;;;;;;;;;23.75;21.25;;;;;20.75;100.00;101124.25;5084305;28;45343;-77
2022/06/04 02:23:11;;;;;;;;;20.50;18.75;;;;;20.71;100.00;101120.69;5078406;28;45483;-76
2022/06/04 02:25:37;;;;;;;;;20.25;18.25;;;;;20.79;100.00;101137.44;5059272;28;47176;-77
2022/06/04 02:28:06;;;;;;;;;21.25;19.50;;;;;20.78;100.00;101122.53;5076733;28;45328;-77
2022/06/04 02:31:04;;;;;;;;;20.25;20.00;;;;;20.80;100.00;101105.00;5077364;28;45421;-76
2022/06/04 02:33:55;;;;;;;;;19.50;17.25;;;;;20.78;100.00;101090.94;5059203;28;45596;-77
2022/06/04 02:36:47;;;;;;;;;23.00;22.00;;;;;20.78;100.00;101082.19;5077014;27;45339;-75
2022/06/04 02:39:29;;;;;;;;;19.00;18.00;;;;;20.78;100.00;101083.06;5073534;27;45275;-77
2022/06/04 02:42:12;;;;;;;;;21.00;19.50;;;;;20.77;100.00;101102.34;5076810;28;45381;-76
2022/06/04 02:44:47;;;;;;;;;21.25;20.50;;;;;20.78;100.00;101097.97;5077467;28;45318;-78
2022/06/04 02:47:19;;;;;;;;;17.75;16.75;;;;;20.72;100.00;101086.50;5079391;28;46741;-76
2022/06/04 02:49:44;;;;;;;;;18.50;17.50;;;;;20.75;100.00;101087.41;5077332;27;45182;-77
2022/06/04 02:52:14;;;;;;;;;21.25;18.50;;;;;20.65;100.00;101071.53;5077398;28;45365;-77
2022/06/04 02:54:49;;;;;;;;;25.50;22.00;;;;;20.77;100.00;101083.94;5077087;28;45570;-76
2022/06/04 02:57:15;;;;;;;;;18.50;17.75;;;;;20.74;100.00;101062.84;5077250;28;46275;-76
2022/06/04 02:59:45;;;;;;;;;20.25;20.25;;;;;20.71;100.00;101058.41;5076884;27;45417;-76
2022/06/04 03:02:14;;;;;;;;;23.25;20.75;;;;;20.71;100.00;101055.78;5077195;28;45450;-76
2022/06/04 03:04:49;;;;;;;;;24.00;22.75;;;;;20.74;100.00;101054.94;5079652;28;45778;-75
2022/06/04 03:07:17;;;;;;;;;22.00;19.75;;;;;20.77;100.00;101054.13;5080066;28;45938;-76
2022/06/04 03:09:44;;;;;;;;;20.75;19.25;;;;;20.76;100.00;101049.72;5077127;28;45267;-75
2022/06/04 03:12:14;;;;;;;;;23.25;22.25;;;;;20.76;100.00;101045.31;5077206;28;45290;-76
2022/06/04 03:14:40;;;;;;;;;20.50;20.50;;;;;20.72;100.00;101044.41;5076685;28;45314;-75
2022/06/04 03:17:09;;;;;;;;;25.75;24.00;;;;;20.71;100.00;101054.91;5076040;28;45984;-76
2022/06/04 03:19:35;;;;;;;;;23.00;21.25;;;;;20.62;100.00;101039.06;5075031;28;45266;-75
2022/06/04 03:22:01;;;;;;;;;25.00;22.00;;;;;20.62;100.00;101039.94;5076202;27;45339;-76
2022/06/04 03:24:27;;;;;;;;;20.75;20.25;;;;;20.55;100.00;101033.75;5076526;28;45532;-78
2022/06/04 03:26:53;;;;;;;;;20.25;20.25;;;;;20.64;100.00;101056.63;5079183;27;46193;-75
2022/06/04 03:29:19;;;;;;;;;25.00;23.75;;;;;20.62;100.00;101068.88;5076573;28;45838;-77
2022/06/04 03:31:48;;;;;;;;;21.75;21.25;;;;;20.58;100.00;101064.44;5077202;28;45739;-77
2022/06/04 03:34:14;;;;;;;;;23.00;20.75;;;;;20.56;100.00;101046.03;5066269;27;45440;-76
2022/06/04 03:36:40;;;;;;;;;24.50;21.75;;;;;20.60;100.00;101031.16;5076785;27;45260;-79
2022/06/04 03:39:08;;;;;;;;;22.50;21.50;;;;;20.52;100.00;101022.34;5076996;28;45222;-78
2022/06/04 03:41:34;;;;;;;;;26.00;21.50;;;;;20.61;100.00;101046.06;5075220;27;45458;-77
2022/06/04 03:44:00;;;;;;;;;22.25;21.75;;;;;20.61;100.00;101050.47;5054207;28;45451;-76
2022/06/04 03:46:27;;;;;;;;;20.75;20.75;;;;;20.60;100.00;101069.75;5055152;28;46550;-77
2022/06/04 03:48:53;;;;;;;;;24.25;22.00;;;;;20.52;100.00;101069.69;5061998;28;45321;-76
2022/06/04 03:51:19;;;;;;;;;22.50;19.50;;;;;20.56;100.00;101088.13;5059679;28;45387;-77
2022/06/04 03:53:44;;;;;;;;;19.50;17.00;;;;;20.54;100.00;101076.72;5056388;28;45497;-76
2022/06/04 03:56:10;;;;;;;;;23.25;23.25;;;;;20.55;100.00;101078.47;5056827;28;45459;-78
2022/06/04 03:58:36;;;;;;;;;21.25;20.50;;;;;20.55;100.00;101069.72;5059370;28;45852;-78
2022/06/04 04:01:14;;;;;;;;;21.75;20.00;;;;;20.54;100.00;101073.22;5059251;28;45343;-77
2022/06/04 04:03:40;;;;;;;;;23.25;19.75;;;;;20.48;100.00;101074.03;5059652;28;45367;-77
2022/06/04 04:06:06;;;;;;;;;22.50;17.75;;;;;20.52;100.00;101081.06;5058665;28;45591;-76
2022/06/04 04:08:31;;;;;;;;;24.00;21.25;;;;;20.54;100.00;101075.84;5062300;27;45636;-78
2022/06/04 04:10:57;;;;;;;;;19.50;19.50;;;;;20.56;100.00;101072.34;5083119;27;45427;-76
2022/06/04 04:13:22;;;;;;;;;19.75;18.25;;;;;20.55;100.00;101069.72;5077206;28;45668;-76
2022/06/04 04:15:48;;;;;;;;;23.00;18.00;;;;;20.55;100.00;101088.13;5077123;28;46144;-77
2022/06/04 04:18:14;;;;;;;;;21.50;19.75;;;;;20.54;100.00;101115.28;5076424;28;45498;-77
2022/06/04 04:20:43;;;;;;;;;20.00;18.25;;;;;20.53;100.00;101129.31;5077300;28;45459;-77
2022/06/04 04:23:09;;;;;;;;;19.25;18.75;;;;;20.52;100.00;101128.41;5077931;28;45527;-77
2022/06/04 04:25:36;;;;;;;;;21.50;20.25;;;;;20.54;100.00;101139.84;5091443;27;45535;-77
2022/06/04 04:28:03;;;;;;;;;22.00;19.25;;;;;20.56;100.00;101158.28;5060120;28;45307;-76
2022/06/04 04:30:32;;;;;;;;;23.25;20.25;;;;;20.56;100.00;101155.66;5082039;27;45400;-78
2022/06/04 04:32:58;;;;;;;;;22.50;21.25;;;;;20.54;100.00;101152.13;5107546;27;45571;-77
2022/06/04 04:35:28;;;;;;;;;20.25;19.75;;;;;20.53;100.00;101145.97;5094266;27;46627;-77
2022/06/04 04:37:55;;;;;;;;;17.75;17.00;;;;;20.53;100.00;101142.47;5079409;27;46046;-79
2022/06/04 04:40:23;;;;;;;;;18.25;17.50;;;;;20.52;100.00;101157.34;5077333;28;45365;-77
2022/06/04 04:42:49;;;;;;;;;18.25;17.50;;;;;20.50;100.00;101151.22;5079395;27;45465;-79
2022/06/04 04:45:17;;;;;;;;;22.50;20.00;;;;;20.54;100.00;101162.66;5081978;27;45325;-77
2022/06/04 04:47:44;;;;;;;;;25.25;21.00;;;;;20.50;100.00;101145.97;5079875;28;45402;-77
2022/06/04 04:50:19;;;;;;;;;18.75;18.75;;;;;20.56;100.00;101147.75;5082469;27;45378;-76
2022/06/04 04:52:46;;;;;;;;;22.25;20.50;;;;;20.56;100.00;101151.25;5082868;28;45194;-79
2022/06/04 04:55:12;;;;;;;;;22.25;20.25;;;;;20.56;100.00;101166.19;5078562;28;45321;-78
2022/06/04 04:57:37;;;;;;;;;21.50;18.25;;;;;20.56;100.00;101171.44;5078694;28;45912;-79
2022/06/04 05:00:06;;;;;;;;;19.75;18.25;;;;;20.59;100.00;101175.84;5078420;28;45378;-77
2022/06/04 05:02:32;;;;;;;;;18.50;17.75;;;;;20.57;100.00;101174.06;5079009;28;45324;-79
2022/06/04 05:04:57;;;;;;;;;20.25;20.25;;;;;20.62;100.00;101210.94;5078208;28;45974;-79
2022/06/04 05:07:23;;;;;;;;;23.00;22.75;;;;;20.55;100.00;101201.25;5078688;27;45309;-79
2022/06/04 05:09:48;;;;;;;;;21.25;20.50;;;;;20.59;100.00;101176.69;5077882;28;45345;-78
2022/06/04 05:12:14;;;;;;;;;20.25;20.25;;;;;20.68;100.00;101163.63;5087852;27;45624;-79
2022/06/04 05:14:40;;;;;;;;;20.00;20.00;;;;;20.69;100.00;101159.25;5076766;27;46037;-80
2022/06/04 05:17:05;;;;;;;;;22.25;19.75;;;;;20.71;100.00;101154.91;5076153;27;45403;-78
2022/06/04 05:19:31;;;;;;;;;20.75;20.75;;;;;20.61;100.00;101145.16;5080749;27;45465;-81
2022/06/04 05:21:58;;;;;;;;;20.25;19.50;;;;;20.72;100.00;101159.31;5102375;27;45516;-82
2022/06/04 05:24:26;;;;;;;;;22.25;19.50;;;;;20.72;100.00;101146.16;5102965;27;46255;-78
2022/06/04 05:26:53;;;;;;;;;23.50;20.50;;;;;20.79;100.00;101154.97;5092506;27;45277;-76
2022/06/04 05:29:20;;;;;;;;;21.75;20.75;;;;;20.77;100.00;101130.41;5081556;27;45589;-76
2022/06/04 05:31:46;;;;;;;;;20.75;19.50;;;;;20.87;100.00;101129.63;5089847;27;45251;-78
2022/06/04 05:34:14;;;;;;;;;22.50;21.00;;;;;20.89;100.00;101130.53;5079637;27;45559;-81
2022/06/04 05:36:40;;;;;;;;;17.50;17.50;;;;;20.96;100.00;101142.84;5082112;27;45852;-83
2022/06/04 05:39:10;;;;;;;;;18.00;17.50;;;;;20.91;100.00;101112.97;5067690;27;45466;-79
2022/06/04 05:41:37;;;;;;;;;18.25;17.25;;;;;20.89;100.00;101096.31;5057743;28;45698;-80
2022/06/04 05:44:04;;;;;;;;;21.75;19.75;;;;;20.99;100.00;101123.53;5077926;27;45529;-81
2022/06/04 05:46:29;;;;;;;;;21.50;18.25;;;;;20.99;100.00;101129.72;5079090;27;46551;-82
2022/06/04 05:48:55;;;;;;;;;15.25;11.75;;;;;21.03;100.00;101128.84;5100240;27;45468;-81
2022/06/04 05:51:27;;;;;;;;;20.50;18.50;;;;;21.04;100.00;101121.84;5115929;27;45375;-79
2022/06/04 05:53:53;;;;;;;;;17.00;16.25;;;;;20.98;100.00;101104.25;5097819;27;46578;-75
2022/06/04 05:56:25;;;;;;;;;20.50;18.00;;;;;21.00;100.00;101120.03;5098617;27;46025;-78
2022/06/04 05:58:54;;;;;;;;;19.50;18.50;;;;;21.01;100.00;101137.59;5079966;27;45272;-76
2022/06/04 06:01:22;;;;;;;;;20.00;20.00;;;;;20.99;100.00;101142.88;5105516;27;45329;-75
2022/06/04 06:03:48;;;;;;;;;22.50;20.75;;;;;21.00;100.00;101162.16;5103828;27;46011;-76
2022/06/04 06:06:19;;;;;;;;;23.00;20.00;;;;;20.96;100.00;101221.81;5099030;27;45236;-76
2022/06/04 06:08:45;;;;;;;;;22.25;19.50;;;;;20.97;100.00;101249.00;5100448;27;45366;-76
2022/06/04 06:11:14;;;;;;;;;19.00;18.75;;;;;20.90;100.00;101232.25;5082333;27;45428;-82
2022/06/04 06:13:42;;;;;;;;;21.75;20.50;;;;;20.84;100.00;101212.03;5077015;28;45596;-77
2022/06/04 06:16:15;;;;;;;;;20.75;19.75;;;;;20.86;100.00;101217.34;5056061;28;45833;-81
2022/06/04 06:18:42;;;;;;;;;23.75;21.75;;;;;20.92;100.00;101206.84;5076269;27;45307;-80
2022/06/04 06:21:12;;;;;;;;;23.75;22.00;;;;;20.88;100.00;101202.44;5080419;27;45559;-79
2022/06/04 06:23:39;;;;;;;;;18.50;16.75;;;;;20.95;100.00;101220.03;5077376;28;46019;-84
2022/06/04 06:26:11;;;;;;;;;21.00;20.00;;;;;20.94;100.00;101227.94;5059645;28;45573;-79
2022/06/04 06:28:39;;;;;;;;;30.75;29.25;;;;;20.89;100.00;101217.38;5079191;27;45456;-81
2022/06/04 06:31:08;;;;;;;;;22.25;20.50;;;;;20.92;100.00;101221.78;5075038;27;45709;-82
2022/06/04 06:33:34;;;;;;;;;20.00;20.00;;;;;20.85;100.00;101221.69;5060164;28;47990;-82
2022/06/04 06:36:05;;;;;;;;;20.25;19.25;;;;;20.86;100.00;101230.50;5078712;27;45532;-80
2022/06/04 06:38:31;;;;;;;;;21.00;19.00;;;;;20.87;100.00;101242.78;5080999;27;45433;-76
2022/06/04 06:40:58;;;;;;;;;18.00;18.00;;;;;20.77;100.00;101223.38;5079021;27;45515;-78
2022/06/04 06:43:34;;;;;;;;;21.00;20.00;;;;;20.86;100.00;101234.00;5079826;27;45400;-78
2022/06/04 06:46:11;;;;;;;;;22.00;20.75;;;;;20.78;100.00;101224.28;5081859;27;45831;-77
2022/06/04 06:48:40;;;;;;;;;22.00;19.75;;;;;20.84;100.00;101250.66;5071070;28;45497;-80
2022/06/04 06:51:13;;;;;;;;;21.75;21.25;;;;;20.85;100.00;101250.66;5075095;28;45324;-78
2022/06/04 06:53:39;;;;;;;;;20.00;17.75;;;;;20.82;100.00;101240.13;5076743;28;45897;-81
2022/06/04 06:56:21;;;;;;;;;19.25;18.25;;;;;20.87;100.00;101235.75;5081734;28;45228;-80
2022/06/04 06:58:47;;;;;;;;;24.00;20.00;;;;;20.87;100.00;101229.63;5069507;28;45441;-76
2022/06/04 07:01:14;;;;;;;;;20.50;18.00;;;;;21.00;100.00;101223.56;5069067;27;45504;-79
2022/06/04 07:03:41;;;;;;;;;25.75;23.75;;;;;21.07;100.00;101216.63;5093943;27;46057;-79
2022/06/04 07:06:09;;;;;;;;;24.75;20.50;;;;;21.17;100.00;101220.22;5074761;27;45407;-78
2022/06/04 07:08:36;;;;;;;;;24.50;20.75;;;;;21.25;100.00;101209.75;5083844;27;45473;-77
2022/06/04 07:11:02;;;;;;;;;18.25;18.25;;;;;21.26;100.00;101195.72;5079724;27;45351;-75
2022/06/04 07:13:28;;;;;;;;;23.25;20.50;;;;;21.34;100.00;101208.03;5078743;27;45442;-77
2022/06/04 07:15:54;;;;;;;;;22.75;21.25;;;;;21.36;100.00;101209.78;5077922;27;45929;-81
2022/06/04 07:18:21;;;;;;;;;23.50;21.50;;;;;21.37;100.00;101199.28;5095543;27;45244;-75
2022/06/04 07:20:47;;;;;;;;;24.00;23.00;;;;;21.34;100.00;101205.41;5091367;27;45464;-82
2022/06/04 07:23:13;;;;;;;;;22.50;22.00;;;;;21.44;100.00;101224.78;5067628;27;46970;-78
2022/06/04 07:25:41;;;;;;;;;19.75;19.75;;;;;21.45;100.00;101212.50;5086556;27;46603;-78
2022/06/04 07:28:08;;;;;;;;;23.75;21.00;;;;;21.45;100.00;101197.59;5086466;27;45473;-79
2022/06/04 07:30:34;;;;;;;;;20.00;20.00;;;;;21.37;100.00;101172.94;5102661;27;45236;-79
2022/06/04 07:33:00;;;;;;;;;25.00;21.25;;;;;21.44;100.00;101195.81;5098439;27;45628;-76
2022/06/04 07:35:26;;;;;;;;;20.75;19.75;;;;;21.45;100.00;101220.38;5061297;28;45498;-76
2022/06/04 07:37:52;;;;;;;;;24.50;20.75;;;;;21.43;100.00;101223.03;5078965;27;45459;-75
2022/06/04 07:40:18;;;;;;;;;23.00;21.00;;;;;21.38;100.00;101216.84;5077049;27;45553;-78
2022/06/04 07:42:45;;;;;;;;;23.00;22.25;;;;;21.36;100.00;101231.78;5075873;27;45326;-76
2022/06/04 07:45:12;;;;;;;;;27.00;23.75;;;;;21.38;100.00;101255.47;5075095;28;45341;-77
2022/06/04 07:47:40;;;;;;;;;22.75;19.50;;;;;21.30;100.00;101247.50;5075133;28;45263;-75
2022/06/04 07:50:07;;;;;;;;;21.25;21.25;;;;;21.26;100.00;101259.78;5076049;27;45227;-82
2022/06/04 07:52:34;;;;;;;;;24.50;23.00;;;;;21.21;100.00;101266.78;5075769;27;45461;-80
2022/06/04 07:55:00;;;;;;;;;23.25;23.25;;;;;21.19;100.00;101268.50;5075122;28;45881;-78
2022/06/04 07:57:26;;;;;;;;;26.75;25.00;;;;;21.17;100.00;101260.56;5075397;27;45454;-79
2022/06/04 07:59:52;;;;;;;;;29.25;23.25;;;;;21.16;100.00;101255.31;5075914;28;45521;-79
2022/06/04 08:02:17;;;;;;;;;25.25;24.00;;;;;21.18;100.00;101249.19;5075340;28;46853;-79
2022/06/04 08:04:43;;;;;;;;;25.25;24.00;;;;;21.11;100.00;101239.47;5075063;28;45286;-78
2022/06/04 08:07:08;;;;;;;;;22.50;21.50;;;;;21.10;100.00;101228.94;5075317;28;45470;-77
2022/06/04 08:09:34;;;;;;;;;21.50;20.50;;;;;21.03;100.00;101207.81;5075797;27;45295;-78
2022/06/04 08:12:00;;;;;;;;;24.25;21.75;;;;;21.09;100.00;101206.97;5075232;27;45276;-78
2022/06/04 08:14:26;;;;;;;;;23.00;23.00;;;;;21.05;100.00;101213.13;5060947;28;45417;-80
2022/06/04 08:16:51;;;;;;;;;18.75;17.25;;;;;;;;5080360;28;45240;-79
2022/06/04 08:19:18;;;;;;;;;26.00;23.75;;;;;20.95;100.00;101209.50;5061554;28;45553;-78
2022/06/04 08:21:45;;;;;;;;;25.75;23.00;;;;;21.02;100.00;101221.84;5080037;27;45418;-78
2022/06/04 08:24:17;;;;;;;;;24.50;23.25;;;;;21.00;100.00;101209.56;5076913;28;45853;-81
2022/06/04 08:26:47;;;;;;;;;23.25;21.25;;;;;20.97;100.00;101212.16;5058268;28;45426;-80
2022/06/04 08:29:15;;;;;;;;;27.75;24.50;;;;;20.99;100.00;101231.47;5056203;28;45527;-83
2022/06/04 08:31:41;;;;;;;;;29.50;28.75;;;;;20.94;100.00;101241.09;5058983;28;47002;-82
2022/06/04 08:34:08;;;;;;;;;31.00;25.50;;;;;20.93;100.00;101240.19;5055710;28;45384;-81
2022/06/04 08:36:34;;;;;;;;;25.00;24.25;;;;;20.97;100.00;101247.25;5072826;27;45588;-81
2022/06/04 08:39:01;;;;;;;;;27.25;26.50;;;;;20.95;100.00;101235.84;5074494;28;45449;-80
2022/06/04 08:41:59;;;;;;;;;28.00;25.50;;;;;21.03;100.00;101252.56;5074863;28;46140;-79
2022/06/04 08:44:38;;;;;;;;;27.75;25.25;;;;;21.04;100.00;101245.56;5078447;28;45798;-79
2022/06/04 08:47:16;;;;;;;;;26.75;24.25;;;;;21.08;100.00;101238.56;5078258;28;45291;-82
2022/06/04 08:49:48;;;;;;;;;28.00;25.00;;;;;21.14;100.00;101246.50;5060179;28;45571;-82
2022/06/04 08:52:48;;;;;;;;;28.50;26.25;;;;;21.19;100.00;101242.19;5077034;27;45285;-80
2022/06/04 08:59:00;;;;;;;;;25.25;25.25;;;;;21.25;100.00;101231.69;5074949;27;45350;-83
2022/06/04 09:01:35;;;;;;;;;29.75;28.00;;;;;21.32;100.00;101243.16;5084461;28;45290;-80
2022/06/04 09:04:28;;;;;;;;;34.50;31.25;;;;;21.39;100.00;101241.44;5081283;28;45443;-81
2022/06/04 09:07:13;;;;;;;;;30.50;27.75;;;;;21.47;100.00;101259.06;5082980;27;45569;-82
2022/06/04 09:09:39;;;;;;;;;30.75;28.75;;;;;21.53;100.00;101263.50;5059582;28;45368;-81
2022/06/04 09:12:26;;;;;;;;;35.75;32.25;;;;;21.60;100.00;101269.69;5077822;28;45368;-80
2022/06/04 09:14:58;;;;;;;;;37.25;30.75;;;;;21.65;100.00;101270.63;5058793;28;46646;-81
2022/06/04 09:17:40;;;;;;;;;28.25;28.25;;;;;21.74;100.00;101282.97;5077456;28;45839;-81
2022/06/04 09:20:29;;;;;;;;;33.00;31.00;;;;;21.81;100.00;101276.88;5077090;27;45422;-80
2022/06/04 09:23:06;;;;;;;;;29.00;26.75;;;;;21.85;100.00;101270.75;5089345;27;45250;-80
2022/06/04 09:26:04;;;;;;;;;34.50;30.00;;;;;21.92;100.00;101274.31;5080295;27;45391;-80
2022/06/04 09:28:48;;;;;;;;;31.50;27.75;;;;;21.97;100.00;101275.19;5075365;27;46040;-79
2022/06/04 09:31:19;;;;;;;;;24.75;23.75;;;;;22.01;100.00;101276.09;5076049;27;45359;-80
2022/06/04 09:34:01;;;;;;;;;27.00;27.00;;;;;22.06;100.00;101269.09;5076331;28;45445;-80
2022/06/04 09:36:40;;;;;;;;;30.00;29.50;;;;;22.10;100.00;101276.13;5076218;28;45516;-79
2022/06/04 09:39:27;;;;;;;;;26.75;25.25;;;;;22.11;100.00;101269.97;5075246;28;45758;-80
2022/06/04 09:41:57;;;;;;;;;28.00;25.25;;;;;22.12;100.00;101258.56;5076283;28;45373;-80
2022/06/04 09:44:26;;;;;;;;;23.25;21.75;;;;;22.09;100.00;101246.25;5077486;28;45258;-81
2022/06/04 09:46:59;;;;;;;;;25.50;23.25;;;;;22.21;100.00;101255.09;5080624;28;45533;-81
2022/06/04 09:49:33;;;;;;;;;25.25;25.25;;;;;22.26;100.00;101248.03;5065382;28;45281;-81
2022/06/04 09:52:10;;;;;;;;;24.00;22.25;;;;;22.30;100.00;101248.97;5079113;27;45252;-81
2022/06/04 09:54:37;;;;;;;;;28.75;25.00;;;;;22.33;100.00;101255.13;5083637;27;45324;-81
2022/06/04 09:57:05;;;;;;;;;28.00;26.25;;;;;22.36;100.00;101260.38;5078246;27;46557;-81
2022/06/04 09:59:34;;;;;;;;;30.00;25.75;;;;;22.39;100.00;101256.91;5093307;27;45919;-80
2022/06/04 10:02:16;;;;;;;;;29.75;24.75;;;;;22.47;100.00;101262.22;5093849;27;45502;-79
2022/06/04 10:04:48;;;;;;;;;22.75;22.00;;;;;22.52;100.00;101261.34;5077976;27;45426;-81
2022/06/04 10:07:29;;;;;;;;;29.50;26.00;;;;;22.56;100.00;101268.41;5096850;27;45328;-80
2022/06/04 10:09:58;;;;;;;;;22.50;21.00;;;;;22.62;100.00;101266.66;5092599;27;45876;-81
2022/06/04 10:15:30;;;;;;;;;22.75;20.00;;;;;22.68;100.00;101266.66;5078861;27;45269;-81
2022/06/04 10:18:15;;;;;;;;;17.75;17.25;;;;;22.69;100.00;101261.38;5081663;27;47692;-81
2022/06/04 10:20:40;;;;;;;;;23.00;19.25;;;;;22.69;100.00;101256.09;5080477;27;45886;-79
2022/06/04 10:23:13;;;;;;;;;20.00;20.00;;;;;22.79;100.00;101261.38;5077458;27;45454;-88
2022/06/04 10:25:56;;;;;;;;;14.00;13.25;;;;;22.85;100.00;101264.91;5095422;27;45478;-81
2022/06/04 10:28:28;;;;;;;;;68.50;56.00;;;;;22.89;100.00;101255.28;5078824;27;46495;-75
2022/06/04 10:31:05;;;;;;;;;36.50;32.00;;;;;22.91;100.00;101260.53;5098348;27;45502;-88
2022/06/04 10:34:01;;;;;;;;;18.00;18.00;;;;;22.94;100.00;101250.84;5077233;27;45228;-78
2022/06/04 10:37:02;;;;;;;;;16.50;14.25;;;;;22.96;100.00;101254.38;5058177;28;45517;-78
2022/06/04 10:40:22;;;;;;;;;10.50;9.00;;;;;22.96;100.00;101242.94;5043355;27;45518;-82
2022/06/04 10:42:48;;;;;;;;;10.00;10.00;;;;;23.02;100.00;101251.72;5036610;28;45657;-84
2022/06/04 10:45:27;;;;;;;;;12.25;11.75;;;;;23.08;100.00;101247.34;5034623;28;45441;-79
2022/06/04 10:48:10;;;;;;;;;15.25;13.25;;;;;23.07;100.00;101232.38;5055902;28;45411;-77
2022/06/04 10:54:09;;;;;;;;;15.50;15.50;;;;;23.21;100.00;101237.69;5074570;28;45881;-79
2022/06/04 10:56:43;;;;;;;;;15.00;14.50;;;;;23.27;100.00;101243.84;5073594;28;45467;-78
2022/06/04 10:59:21;;;;;;;;;15.75;15.50;;;;;23.33;100.00;101235.03;5077048;28;45361;-84
2022/06/04 11:02:14;;;;;;;;;16.25;15.75;;;;;23.39;100.00;101231.50;5076690;27;46357;-75
2022/06/04 11:04:50;;;;;;;;;21.00;17.25;;;;;23.42;100.00;101219.16;5058282;28;46363;-85
2022/06/04 11:07:27;;;;;;;;;16.75;16.25;;;;;23.54;100.00;101222.66;5063661;27;45534;-78
2022/06/04 11:09:56;;;;;;;;;14.75;14.75;;;;;23.56;100.00;101223.53;5077154;27;45303;-78
2022/06/04 11:12:37;;;;;;;;;14.75;14.75;;;;;23.62;100.00;101234.06;5075932;28;45320;-78
2022/06/04 11:15:27;;;;;;;;;17.25;16.75;;;;;23.68;100.00;101236.72;5074084;28;45740;-80
2022/06/04 11:18:02;;;;;;;;;14.75;13.00;;;;;23.74;100.00;101233.19;5075367;27;45561;-83
2022/06/04 11:20:36;;;;;;;;;14.75;14.75;;;;;23.79;99.80;101221.72;5075495;28;45476;-79
2022/06/04 11:23:31;;;;;;;;;17.25;15.50;;;;;23.84;99.05;101219.03;5075996;28;45987;-80
2022/06/04 11:26:05;;;;;;;;;15.75;14.75;;;;;23.90;98.06;101213.72;5058598;28;45662;-76
2022/06/04 11:28:32;;;;;;;;;17.00;14.75;;;;;24.00;99.07;101225.19;5076759;27;45319;-76
2022/06/04 11:31:35;;;;;;;;;16.50;15.25;;;;;24.10;99.00;101221.59;5076366;28;45571;-77
2022/06/04 11:34:27;;;;;;;;;16.00;13.75;;;;;24.19;96.93;101219.78;5072653;28;45409;-77
2022/06/04 11:37:01;;;;;;;;;13.25;13.25;;;;;24.20;96.47;101209.19;5073593;27;45833;-81
2022/06/04 11:39:40;;;;;;;;;15.25;13.00;;;;;24.24;94.99;101212.72;5082936;27;45346;-78